Maldives Meteorological Service

METAR

Station
VRMM
METAR VRMM 111300Z 11003KT 9999 FEW019 29/22 Q1012 NOSIG=
VRMH
METAR VRMH 111300Z 05004KT 9999 FEW018TCU 28/24 Q1011=
VRMK
METAR VRMK 111300Z VRB01KT 9999 FEW019 28/22 Q1012=
VRMT
METAR VRMT 111300Z VRB01KT 9999 FEW018 28/24 Q1011=
VRMG
METAR VRMG 111300Z VRB02KT 9999 FEW018 SCT120 29/23 Q1012 NOSIG=
Last Updated : 2017-12-11 18:00:06

SPECI

Station
VRMM
VRMH
VRMK
VRMT
VRMG
Last Updated : 2017-12-11 18:00:06